Time;durP1;ratioP1;P1;durP2;ratioP2;P2;SDS_P1;SDS_P2;PMS_P1;PMS_P2;Temp;Humidity;BMP_temperature;BMP_pressure;BME280_temperature;BME280_humidity;BME280_pressure;Samples;Min_cycle;Max_cycle;Signal;HPM_P1;HPM_P2
2023/02/23 00:01:27;;;;;;;;;21.25;20.50;;;;;11.25;60.25;100850.09;6279158;22;45193;-61
2023/02/23 00:03:56;;;;;;;;;21.00;19.75;;;;;11.25;60.29;100852.72;6279155;22;45245;-61
2023/02/23 00:06:23;;;;;;;;;23.75;21.75;;;;;11.24;60.17;100850.97;6278633;22;45502;-61
2023/02/23 00:08:51;;;;;;;;;22.50;22.25;;;;;11.22;60.19;100858.91;6278737;22;46151;-61
2023/02/23 00:11:17;;;;;;;;;21.50;19.00;;;;;11.22;60.09;100850.16;6251197;22;45419;-61
2023/02/23 00:13:48;;;;;;;;;23.00;20.25;;;;;11.24;60.25;100848.34;6279115;22;45276;-61
2023/02/23 00:16:24;;;;;;;;;23.50;20.50;;;;;11.26;60.04;100853.56;6253161;22;45402;-61
2023/02/23 00:18:59;;;;;;;;;21.75;21.25;;;;;11.25;60.02;100847.44;6278416;22;45150;-61
2023/02/23 00:21:33;;;;;;;;;18.50;17.50;;;;;11.26;60.07;100851.81;6278227;22;45217;-62
2023/02/23 00:24:04;;;;;;;;;20.00;17.25;;;;;11.24;60.15;100843.06;6279317;22;45165;-62
2023/02/23 00:26:33;;;;;;;;;22.50;20.25;;;;;11.26;59.96;100849.19;6278863;22;45328;-62
2023/02/23 00:29:00;;;;;;;;;21.75;17.00;;;;;11.27;59.98;100845.69;6276755;22;45999;-61
2023/02/23 00:31:26;;;;;;;;;21.25;20.00;;;;;11.25;59.84;100839.56;6278990;22;45175;-61
2023/02/23 00:33:54;;;;;;;;;22.75;20.00;;;;;11.29;59.91;100835.97;6278898;22;45114;-62
2023/02/23 00:36:21;;;;;;;;;26.75;21.75;;;;;11.30;59.96;100847.41;6278701;22;45347;-61
2023/02/23 00:38:55;;;;;;;;;24.50;20.00;;;;;11.29;59.78;100846.50;6276378;22;47258;-61
2023/02/23 00:41:30;;;;;;;;;20.00;18.50;;;;;11.29;59.90;100850.91;6278742;22;45245;-61
2023/02/23 00:43:57;;;;;;;;;22.00;18.75;;;;;11.29;59.92;100849.13;6279283;22;45192;-62
2023/02/23 00:46:28;;;;;;;;;23.00;19.75;;;;;11.31;59.77;100849.13;6278944;22;45249;-62
2023/02/23 00:48:55;;;;;;;;;17.50;14.75;;;;;11.30;59.76;100850.03;6278156;22;45175;-62
2023/02/23 00:51:21;;;;;;;;;21.75;21.50;;;;;11.30;59.49;100845.63;6250811;22;45577;-61
2023/02/23 00:53:47;;;;;;;;;22.75;21.50;;;;;11.29;59.59;100835.97;6279061;22;45307;-62
2023/02/23 00:56:14;;;;;;;;;22.00;20.50;;;;;11.29;59.83;100846.50;6250816;22;45283;-61
2023/02/23 00:58:41;;;;;;;;;23.50;22.00;;;;;11.30;59.53;100848.25;6278509;22;46135;-62
2023/02/23 01:01:09;;;;;;;;;29.00;22.75;;;;;11.26;59.51;100843.94;6250969;22;45142;-62
2023/02/23 01:03:35;;;;;;;;;28.00;22.75;;;;;11.28;59.63;100852.69;6276578;22;45315;-62
2023/02/23 01:06:05;;;;;;;;;22.75;17.50;;;;;11.27;59.64;100850.94;6278266;22;45228;-61
2023/02/23 01:08:35;;;;;;;;;22.50;20.00;;;;;11.28;59.51;100863.22;6250558;22;45438;-62
2023/02/23 01:11:06;;;;;;;;;25.00;24.00;;;;;11.26;59.45;100861.47;6278369;22;45270;-61
2023/02/23 01:13:31;;;;;;;;;28.50;24.75;;;;;11.20;59.53;100860.66;6278827;22;45150;-62
2023/02/23 01:15:57;;;;;;;;;25.25;22.00;;;;;11.20;59.45;100860.66;6278732;22;45162;-62
2023/02/23 01:18:23;;;;;;;;;24.75;22.75;;;;;11.16;59.50;100856.34;6277884;22;45199;-61
2023/02/23 01:20:49;;;;;;;;;25.50;23.25;;;;;11.15;59.46;100848.50;6278187;22;45269;-61
2023/02/23 01:23:15;;;;;;;;;22.00;21.75;;;;;11.16;59.44;100866.03;6277404;22;45340;-61
2023/02/23 01:25:42;;;;;;;;;28.75;23.50;;;;;11.14;59.36;100860.75;6278747;22;45447;-62
2023/02/23 01:28:09;;;;;;;;;27.75;24.50;;;;;11.13;59.41;100866.03;6278134;22;46533;-62
2023/02/23 01:30:36;;;;;;;;;27.75;23.00;;;;;11.12;59.64;100866.94;6278440;22;45280;-62
2023/02/23 01:33:02;;;;;;;;;24.50;22.50;;;;;11.12;59.53;100867.81;6278644;22;45284;-61
2023/02/23 01:35:28;;;;;;;;;27.00;27.00;;;;;11.15;59.49;100869.53;6278295;22;45115;-61
2023/02/23 01:37:54;;;;;;;;;30.25;28.25;;;;;11.08;59.32;100852.09;6278712;22;46810;-61
2023/02/23 01:40:27;;;;;;;;;32.00;26.50;;;;;11.13;59.43;100866.03;6278722;22;45185;-62
2023/02/23 01:43:13;;;;;;;;;31.25;25.75;;;;;11.12;59.36;100864.31;6278053;22;45242;-61
2023/02/23 01:45:41;;;;;;;;;32.50;26.00;;;;;11.10;59.30;100864.31;6250101;22;46015;-61
2023/02/23 01:48:11;;;;;;;;;30.00;27.50;;;;;11.10;59.36;100860.84;6277687;22;46006;-62
2023/02/23 01:50:51;;;;;;;;;29.00;24.75;;;;;11.07;59.25;100853.88;6276128;22;45579;-61
2023/02/23 01:53:20;;;;;;;;;25.50;23.00;;;;;11.08;59.31;100860.88;6278578;22;45382;-61
2023/02/23 01:55:48;;;;;;;;;31.25;27.00;;;;;11.01;59.19;100857.44;6250643;22;45402;-62
2023/02/23 01:58:18;;;;;;;;;31.50;26.00;;;;;11.06;59.24;100860.88;6277906;22;45316;-62
2023/02/23 02:00:49;;;;;;;;;31.50;29.75;;;;;11.08;59.20;100862.63;6278229;22;45288;-62
2023/02/23 02:03:26;;;;;;;;;27.75;26.00;;;;;11.08;59.23;100862.63;6278415;22;45260;-61
2023/02/23 02:05:55;;;;;;;;;27.50;24.50;;;;;11.07;59.17;100867.03;6278389;22;45244;-62
2023/02/23 02:08:23;;;;;;;;;23.75;22.25;;;;;11.06;59.24;100863.50;6277555;22;46102;-61
2023/02/23 02:10:54;;;;;;;;;35.75;31.00;;;;;11.08;58.97;100866.13;6278327;22;45094;-61
2023/02/23 02:13:23;;;;;;;;;26.25;24.75;;;;;11.09;59.13;100861.72;6250282;22;45459;-62
2023/02/23 02:16:08;;;;;;;;;34.50;27.25;;;;;11.09;59.11;100861.72;6251252;22;45479;-61
2023/02/23 02:18:55;;;;;;;;;34.75;29.75;;;;;11.06;59.18;100849.50;6278696;22;45935;-61
2023/02/23 02:21:23;;;;;;;;;26.00;26.00;;;;;11.10;59.19;100851.19;6251367;22;45276;-61
2023/02/23 02:24:10;;;;;;;;;31.50;27.25;;;;;11.11;59.26;100849.44;6279716;22;45265;-61
2023/02/23 02:27:05;;;;;;;;;27.00;24.75;;;;;11.11;59.05;100857.31;6279724;22;45399;-61
2023/02/23 02:29:44;;;;;;;;;37.25;29.25;;;;;11.11;59.19;100849.44;6226163;22;46427;-62
2023/02/23 02:32:38;;;;;;;;;25.00;22.25;;;;;11.12;59.06;100846.78;6278878;22;45218;-61
2023/02/23 02:35:22;;;;;;;;;25.00;22.00;;;;;11.12;59.08;100844.16;6279169;22;45086;-61
2023/02/23 02:38:03;;;;;;;;;28.00;25.50;;;;;11.11;59.15;100845.03;6251548;22;45457;-61
2023/02/23 02:40:52;;;;;;;;;32.00;26.25;;;;;11.13;59.15;100842.38;6278062;22;45296;-61
2023/02/23 02:43:56;;;;;;;;;27.25;23.50;;;;;11.12;59.15;100852.03;6278768;22;45170;-61
2023/02/23 02:46:43;;;;;;;;;25.50;21.50;;;;;11.01;59.19;100831.13;6241448;22;45336;-61
2023/02/23 02:49:28;;;;;;;;;24.75;23.00;;;;;11.12;58.99;100856.41;6278698;22;45236;-61
2023/02/23 02:51:59;;;;;;;;;25.00;23.00;;;;;11.10;58.67;100852.94;6279500;22;46471;-62
2023/02/23 02:54:30;;;;;;;;;26.00;24.25;;;;;11.05;58.78;100840.72;6279338;22;45177;-62
2023/02/23 02:57:01;;;;;;;;;29.00;24.50;;;;;11.07;59.10;100848.59;6279440;22;45295;-62
2023/02/23 04:18:10;;;;;;;;;30.50;25.50;;;;;10.51;58.63;100849.31;6278608;22;45266;-61
2023/02/23 04:20:35;;;;;;;;;30.00;24.75;;;;;10.52;58.80;100852.84;6278642;22;45249;-61
2023/02/23 04:23:00;;;;;;;;;31.00;27.00;;;;;10.51;58.77;100851.09;6278911;22;45202;-59
2023/02/23 04:25:27;;;;;;;;;23.75;23.25;;;;;10.53;58.68;100857.22;6278429;22;45091;-61
2023/02/23 04:27:52;;;;;;;;;26.25;24.25;;;;;10.52;58.50;100852.84;6278886;22;45141;-61
2023/02/23 04:30:19;;;;;;;;;26.50;25.00;;;;;10.52;58.54;100860.72;6279027;22;45472;-61
2023/02/23 04:32:45;;;;;;;;;26.75;24.25;;;;;10.53;58.53;100871.22;6279125;22;45267;-61
2023/02/23 04:35:12;;;;;;;;;32.75;22.75;;;;;10.50;58.62;100860.75;6278565;22;45251;-60
2023/02/23 04:37:38;;;;;;;;;32.00;29.00;;;;;10.53;58.88;100867.72;6278552;22;45250;-61
2023/02/23 04:40:04;;;;;;;;;26.75;25.50;;;;;10.48;58.50;100854.63;6278872;22;45268;-59
2023/02/23 04:42:30;;;;;;;;;24.50;19.50;;;;;10.51;58.61;100861.59;6278202;22;46206;-62
2023/02/23 04:44:55;;;;;;;;;31.75;28.50;;;;;10.52;58.48;100865.97;6251103;22;45232;-59
2023/02/23 04:47:21;;;;;;;;;29.25;27.25;;;;;10.53;58.58;100862.47;6278712;22;45146;-60
2023/02/23 04:49:46;;;;;;;;;30.00;27.25;;;;;10.53;58.41;100870.34;6250765;22;45181;-60
2023/02/23 04:52:12;;;;;;;;;27.25;24.25;;;;;10.52;58.87;100865.97;6278955;22;45984;-60
2023/02/23 04:54:38;;;;;;;;;28.25;25.25;;;;;10.51;58.34;100872.13;6278768;22;45140;-59
2023/02/23 04:57:04;;;;;;;;;30.25;26.75;;;;;10.51;58.58;100885.25;6279135;22;45365;-60
2023/02/23 04:59:30;;;;;;;;;32.75;29.25;;;;;10.50;58.43;100887.03;6278896;22;45462;-62
2023/02/23 05:01:55;;;;;;;;;27.75;26.25;;;;;10.49;58.55;100887.91;6251070;22;45920;-60
2023/02/23 05:04:21;;;;;;;;;29.75;27.50;;;;;10.48;58.56;100888.78;6278609;22;45178;-60
2023/02/23 05:06:46;;;;;;;;;29.25;25.50;;;;;10.48;58.43;100894.03;6278923;22;45288;-61
2023/02/23 05:09:12;;;;;;;;;31.75;28.25;;;;;10.38;58.26;100888.00;6276515;22;45394;-62
2023/02/23 05:11:37;;;;;;;;;26.25;24.75;;;;;10.45;58.50;100890.56;6278733;22;45621;-62
2023/02/23 05:14:03;;;;;;;;;23.75;22.75;;;;;10.47;58.39;100901.94;6251111;22;45276;-60
2023/02/23 05:16:28;;;;;;;;;29.25;25.50;;;;;10.47;58.35;100905.44;6278711;22;45405;-59
2023/02/23 05:18:54;;;;;;;;;23.00;19.75;;;;;10.47;58.22;100904.56;6278256;22;45440;-60
2023/02/23 05:21:20;;;;;;;;;28.25;26.25;;;;;10.46;58.47;100908.09;6278903;22;45935;-60
2023/02/23 05:23:46;;;;;;;;;32.50;28.00;;;;;10.46;58.48;100908.09;6278717;22;45091;-60
2023/02/23 05:26:13;;;;;;;;;27.00;25.25;;;;;10.44;58.38;100909.84;6278878;22;45090;-60
2023/02/23 05:28:40;;;;;;;;;32.00;28.50;;;;;10.44;58.16;100908.09;6277721;22;45252;-60
2023/02/23 05:31:06;;;;;;;;;34.75;27.75;;;;;10.46;58.22;100910.72;6278654;22;46054;-61
2023/02/23 05:33:33;;;;;;;;;29.00;28.00;;;;;10.44;58.22;100902.84;6278830;22;45366;-62
2023/02/23 05:35:58;;;;;;;;;26.75;23.25;;;;;10.46;58.22;100903.69;6278556;22;45262;-62
2023/02/23 05:38:24;;;;;;;;;33.50;27.50;;;;;10.45;58.35;100903.72;6278454;22;45249;-62
2023/02/23 05:40:50;;;;;;;;;25.75;25.25;;;;;10.44;58.24;100904.59;6278779;22;45553;-61
2023/02/23 05:43:15;;;;;;;;;34.50;30.25;;;;;10.43;58.26;100906.38;6225431;22;45251;-61
2023/02/23 05:45:43;;;;;;;;;34.00;26.25;;;;;10.45;58.39;100914.22;6278980;22;45205;-61
2023/02/23 05:48:10;;;;;;;;;30.50;28.50;;;;;10.45;58.40;100914.22;6278390;22;45169;-61
2023/02/23 05:50:35;;;;;;;;;54.25;42.00;;;;;10.41;58.36;100910.75;6278138;22;45324;-61
2023/02/23 05:53:01;;;;;;;;;38.75;32.75;;;;;10.41;58.16;100910.75;6278626;22;45340;-61
2023/02/23 05:55:27;;;;;;;;;29.00;23.75;;;;;10.42;58.10;100920.38;6278630;22;45259;-60
2023/02/23 05:57:52;;;;;;;;;22.50;21.75;;;;;10.36;58.30;100910.81;6278185;22;45276;-60
2023/02/23 06:00:18;;;;;;;;;33.00;29.25;;;;;10.42;58.16;100920.38;6278459;22;46110;-60
2023/02/23 06:02:44;;;;;;;;;33.25;30.25;;;;;10.40;58.40;100917.78;6278658;22;45188;-60
2023/02/23 06:05:11;;;;;;;;;39.25;31.25;;;;;10.37;58.31;100909.91;6278264;22;45254;-60
2023/02/23 06:07:37;;;;;;;;;28.25;24.75;;;;;10.39;58.16;100921.28;6278359;22;45239;-60
2023/02/23 06:10:03;;;;;;;;;29.75;25.50;;;;;10.36;58.29;100910.81;6278609;22;45137;-60
2023/02/23 06:12:29;;;;;;;;;34.00;27.50;;;;;10.37;58.42;100919.56;6250372;22;45314;-60
2023/02/23 06:14:54;;;;;;;;;37.75;29.50;;;;;10.33;58.29;100904.69;6276529;22;45275;-60
2023/02/23 06:17:20;;;;;;;;;30.00;26.00;;;;;10.34;58.01;100909.94;6249874;22;45267;-61
2023/02/23 06:19:45;;;;;;;;;36.75;31.50;;;;;10.35;58.30;100910.78;6277975;22;46054;-60
2023/02/23 06:22:10;;;;;;;;;35.50;31.25;;;;;10.33;57.89;100913.44;6278339;22;45169;-60
2023/02/23 06:24:36;;;;;;;;;28.75;27.50;;;;;10.33;58.14;100910.81;6277331;22;45198;-60
2023/02/23 06:27:01;;;;;;;;;31.25;30.50;;;;;10.36;58.12;100915.19;6250102;22;45355;-60
2023/02/23 06:29:26;;;;;;;;;25.75;21.00;;;;;10.34;58.06;100914.28;6278237;22;46098;-60
2023/02/23 06:31:52;;;;;;;;;35.50;31.00;;;;;10.33;58.13;100916.06;6278215;22;45177;-60
2023/02/23 06:34:17;;;;;;;;;50.75;40.00;;;;;10.33;58.01;100916.06;6278098;22;45200;-60
2023/02/23 06:36:43;;;;;;;;;34.00;31.75;;;;;10.33;58.25;100912.56;6277368;22;45213;-60
2023/02/23 06:39:09;;;;;;;;;34.00;28.00;;;;;10.32;58.18;100908.19;6277404;22;46518;-60
2023/02/23 06:41:35;;;;;;;;;33.50;29.75;;;;;10.28;58.32;100901.25;6249719;22;45193;-60
2023/02/23 06:44:00;;;;;;;;;27.00;26.25;;;;;10.28;57.94;100911.75;6278466;22;45160;-60
2023/02/23 06:46:25;;;;;;;;;36.25;29.25;;;;;10.29;57.98;100918.72;6278260;22;45213;-60
2023/02/23 06:48:58;;;;;;;;;34.75;31.50;;;;;10.28;58.01;100909.97;6277508;22;45256;-61
2023/02/23 06:51:24;;;;;;;;;34.50;30.50;;;;;10.28;58.01;100911.75;6277616;22;45364;-60
2023/02/23 06:53:51;;;;;;;;;30.50;28.25;;;;;10.27;57.93;100912.63;6277716;22;45099;-61
2023/02/23 06:56:16;;;;;;;;;35.75;29.25;;;;;10.26;57.93;100919.63;6277453;22;45588;-60
2023/02/23 06:58:42;;;;;;;;;31.00;26.25;;;;;10.25;57.87;100920.50;6277476;22;45310;-60
2023/02/23 07:01:08;;;;;;;;;32.50;27.25;;;;;10.24;57.97;100926.66;6278766;22;45185;-60
2023/02/23 07:03:34;;;;;;;;;36.75;30.25;;;;;10.21;58.06;100935.44;6280039;22;45479;-60
2023/02/23 07:05:59;;;;;;;;;36.75;31.25;;;;;10.22;57.92;100942.41;6251535;22;45287;-61
2023/02/23 07:08:25;;;;;;;;;28.50;25.50;;;;;10.21;58.01;100942.44;6278993;22;45366;-61
2023/02/23 07:10:50;;;;;;;;;33.25;29.50;;;;;10.17;57.90;100933.72;6279497;22;45249;-61
2023/02/23 07:13:16;;;;;;;;;34.25;28.25;;;;;10.19;58.22;100946.84;6279622;22;45456;-61
2023/02/23 07:15:41;;;;;;;;;33.25;29.25;;;;;10.17;57.83;100936.34;6279450;22;45252;-61
2023/02/23 07:18:07;;;;;;;;;43.25;33.00;;;;;10.14;57.86;100940.75;6278130;22;46000;-61
2023/02/23 07:20:33;;;;;;;;;38.75;32.00;;;;;10.18;57.92;100950.38;6251404;22;45331;-61
2023/02/23 07:23:02;;;;;;;;;59.75;48.75;;;;;10.15;57.87;100953.88;6279747;22;45193;-61
2023/02/23 07:25:28;;;;;;;;;36.25;31.00;;;;;10.18;57.94;100958.25;6251368;22;45182;-61
2023/02/23 07:27:54;;;;;;;;;41.50;33.50;;;;;10.18;58.11;100956.47;6278953;22;45161;-61
2023/02/23 07:30:23;;;;;;;;;35.75;32.50;;;;;10.17;57.29;100957.34;6251514;22;45387;-61
2023/02/23 07:32:49;;;;;;;;;36.25;32.50;;;;;10.16;57.83;100955.63;6279173;22;45260;-61
2023/02/23 07:35:15;;;;;;;;;44.75;34.50;;;;;10.18;57.89;100972.22;6279213;22;45273;-61
2023/02/23 07:37:40;;;;;;;;;38.50;31.75;;;;;10.17;57.94;100970.47;6251242;22;47142;-61
2023/02/23 07:40:07;;;;;;;;;36.25;31.75;;;;;10.18;58.10;100984.50;6251113;22;45337;-61
2023/02/23 07:42:32;;;;;;;;;40.50;31.75;;;;;10.16;58.14;100976.66;6279342;22;45276;-61
2023/02/23 07:44:57;;;;;;;;;31.00;29.25;;;;;10.19;58.08;100975.75;6279325;22;45231;-61
2023/02/23 07:47:29;;;;;;;;;31.25;29.25;;;;;10.17;58.12;100973.13;6278803;22;45118;-61
2023/02/23 07:49:55;;;;;;;;;35.00;30.25;;;;;10.18;58.05;100977.47;6226876;22;45741;-61
2023/02/23 07:52:20;;;;;;;;;37.25;33.25;;;;;10.20;57.82;100994.13;6279355;22;45564;-61
2023/02/23 07:54:46;;;;;;;;;35.00;31.00;;;;;10.22;57.85;100989.69;6279339;22;45209;-61
2023/02/23 07:57:11;;;;;;;;;33.50;30.75;;;;;10.24;57.98;100994.97;6278728;22;45943;-61
2023/02/23 07:59:38;;;;;;;;;36.75;31.50;;;;;10.20;57.88;100980.97;6279235;22;45224;-61
2023/02/23 08:02:03;;;;;;;;;33.25;28.25;;;;;10.23;57.87;100982.72;6278995;22;45237;-61
2023/02/23 08:04:28;;;;;;;;;34.75;31.25;;;;;10.23;58.04;100983.56;6278867;22;45284;-61
2023/02/23 08:06:54;;;;;;;;;37.25;32.00;;;;;10.29;57.91;100987.00;6279044;22;46166;-61
2023/02/23 08:09:19;;;;;;;;;38.75;31.00;;;;;10.27;58.11;100981.78;6279089;22;45305;-61
2023/02/23 08:11:45;;;;;;;;;34.75;29.50;;;;;10.30;58.11;100988.75;6278445;22;45216;-61
2023/02/23 08:14:11;;;;;;;;;30.00;25.25;;;;;10.31;57.88;100986.13;6279039;22;45434;-61
2023/02/23 08:16:36;;;;;;;;;36.00;30.00;;;;;10.36;57.93;100994.00;6251222;22;47401;-61
2023/02/23 08:19:02;;;;;;;;;33.25;30.50;;;;;10.35;58.00;100982.59;6277320;22;45239;-61
2023/02/23 08:21:28;;;;;;;;;32.50;31.75;;;;;10.40;57.98;100990.44;6251491;22;45272;-61
2023/02/23 08:23:54;;;;;;;;;32.75;31.75;;;;;10.41;57.92;100989.56;6278460;22;45276;-61
2023/02/23 08:26:20;;;;;;;;;34.75;29.00;;;;;10.42;58.04;100999.19;6278842;22;45223;-61
2023/02/23 08:28:45;;;;;;;;;29.50;28.00;;;;;10.44;57.95;101001.81;6278323;22;45095;-61
2023/02/23 08:31:12;;;;;;;;;32.25;27.50;;;;;10.43;58.23;100995.69;6279194;22;45154;-61
2023/02/23 08:33:39;;;;;;;;;30.00;24.75;;;;;10.45;58.16;100998.28;6278924;22;45087;-59
2023/02/23 08:36:07;;;;;;;;;29.75;27.75;;;;;10.47;57.91;100993.91;6276912;22;48122;-62
2023/02/23 08:38:35;;;;;;;;;26.75;23.75;;;;;10.50;58.19;101001.75;6278759;22;45170;-62
2023/02/23 08:41:01;;;;;;;;;27.75;23.00;;;;;10.52;58.04;101002.63;6251220;22;45213;-62
2023/02/23 08:43:27;;;;;;;;;23.25;22.25;;;;;10.52;57.98;100995.59;6278902;22;45307;-62
2023/02/23 08:45:52;;;;;;;;;31.75;27.50;;;;;10.57;58.20;100993.78;6251161;22;46852;-62
2023/02/23 08:48:18;;;;;;;;;31.00;25.25;;;;;10.57;57.89;100992.94;6278405;22;45291;-61
2023/02/23 08:50:43;;;;;;;;;27.00;25.00;;;;;10.62;58.08;100996.38;6278783;22;45284;-63
2023/02/23 08:53:09;;;;;;;;;30.25;24.00;;;;;10.64;57.89;100991.97;6279090;22;45145;-61
2023/02/23 08:55:37;;;;;;;;;31.25;28.75;;;;;10.69;57.84;100989.28;6251377;22;47770;-62
2023/02/23 08:58:02;;;;;;;;;38.50;31.25;;;;;10.69;58.18;100992.81;6278451;22;45181;-61
2023/02/23 09:00:27;;;;;;;;;32.00;25.75;;;;;10.72;57.90;101000.63;6279075;22;45798;-62
2023/02/23 09:02:53;;;;;;;;;33.50;29.00;;;;;10.78;57.91;100998.81;6250894;22;45362;-62
2023/02/23 09:05:19;;;;;;;;;32.75;28.50;;;;;10.82;57.84;100997.94;6250885;22;47006;-62
2023/02/23 09:07:45;;;;;;;;;28.25;26.75;;;;;10.86;58.02;101004.88;6278086;22;45143;-61
2023/02/23 09:10:16;;;;;;;;;37.75;33.25;;;;;10.88;58.08;100997.88;6279088;22;45172;-62
2023/02/23 09:12:41;;;;;;;;;33.00;25.75;;;;;10.89;57.97;100989.94;6250676;22;46036;-62
2023/02/23 09:15:07;;;;;;;;;27.25;24.75;;;;;11.01;58.00;101009.09;6278829;22;45362;-62
2023/02/23 09:17:32;;;;;;;;;26.50;23.25;;;;;11.03;58.07;101005.56;6277862;22;45355;-62
2023/02/23 09:19:58;;;;;;;;;19.75;18.75;;;;;11.07;58.00;101003.78;6278621;22;45301;-62
2023/02/23 09:22:24;;;;;;;;;23.25;20.00;;;;;11.12;58.03;101006.31;6278636;22;45261;-62
2023/02/23 09:24:50;;;;;;;;;26.50;22.75;;;;;11.13;58.25;100998.44;6278432;22;46085;-61
2023/02/23 09:27:15;;;;;;;;;23.25;22.00;;;;;11.17;58.14;101004.50;6278311;22;45142;-62
2023/02/23 09:29:41;;;;;;;;;28.00;26.00;;;;;11.23;58.07;101009.69;6278456;22;45193;-62
2023/02/23 09:32:06;;;;;;;;;24.00;20.50;;;;;11.30;58.10;101010.50;6278587;22;45402;-62
2023/02/23 09:34:32;;;;;;;;;26.75;23.50;;;;;11.35;57.99;101006.06;6278461;22;45970;-62
2023/02/23 09:36:57;;;;;;;;;21.25;19.50;;;;;11.42;58.23;101015.63;6278343;22;45331;-62
2023/02/23 09:39:22;;;;;;;;;21.50;17.75;;;;;11.46;58.08;101011.16;6278533;22;45228;-62
2023/02/23 09:42:10;;;;;;;;;25.25;21.25;;;;;11.52;58.17;101006.69;6250489;22;45211;-62
2023/02/23 09:44:51;;;;;;;;;23.75;22.50;;;;;11.58;58.16;101008.34;6277958;22;46201;-62
2023/02/23 09:47:40;;;;;;;;;24.50;22.25;;;;;11.64;58.10;101010.91;6278263;22;45102;-62
2023/02/23 09:50:15;;;;;;;;;20.00;19.75;;;;;11.73;58.19;101014.31;6278445;22;45357;-62
2023/02/23 09:52:46;;;;;;;;;21.00;18.25;;;;;11.77;58.39;101021.25;6278295;22;45434;-60
2023/02/23 09:55:14;;;;;;;;;21.00;19.25;;;;;11.81;58.08;101008.03;6252066;22;46310;-60
2023/02/23 09:57:44;;;;;;;;;20.75;18.50;;;;;11.92;58.16;101017.53;6277308;22;45169;-60
2023/02/23 10:00:35;;;;;;;;;20.00;16.50;;;;;11.96;58.29;101028.03;6278740;22;45118;-62
2023/02/23 10:03:11;;;;;;;;;17.75;17.25;;;;;12.01;58.09;101027.94;6252444;22;45282;-60
2023/02/23 10:05:50;;;;;;;;;19.00;15.50;;;;;12.03;57.94;101034.06;6278201;22;45453;-60
2023/02/23 10:08:49;;;;;;;;;21.00;18.75;;;;;12.08;58.04;101036.66;6278567;22;45406;-60
2023/02/23 10:11:33;;;;;;;;;20.75;19.50;;;;;12.11;58.02;101029.56;6250347;22;45301;-62
2023/02/23 10:14:07;;;;;;;;;21.25;18.25;;;;;12.16;58.17;101032.09;6277799;22;45289;-60
2023/02/23 10:16:57;;;;;;;;;16.75;14.00;;;;;12.18;58.12;101028.56;6277747;22;45978;-60
2023/02/23 10:19:47;;;;;;;;;16.25;15.50;;;;;12.20;58.02;101025.91;6276868;22;45377;-60
2023/02/23 10:22:14;;;;;;;;;17.75;14.00;;;;;12.22;57.99;101028.50;6278538;22;45282;-60
2023/02/23 10:24:50;;;;;;;;;18.25;16.25;;;;;12.24;58.18;101027.59;6278253;22;45278;-60
2023/02/23 10:27:18;;;;;;;;;16.25;16.25;;;;;12.24;57.88;101026.72;6277163;22;47291;-61
2023/02/23 10:30:00;;;;;;;;;19.00;16.75;;;;;12.25;57.81;101016.16;6278060;22;45201;-63
2023/02/23 10:32:43;;;;;;;;;18.00;16.00;;;;;12.29;57.89;101031.03;6278461;22;45221;-62
2023/02/23 10:35:15;;;;;;;;;17.25;14.75;;;;;12.32;57.92;101023.03;6278287;22;45232;-60
2023/02/23 10:37:40;;;;;;;;;20.50;16.50;;;;;12.33;57.62;101016.88;6279339;22;45267;-62
2023/02/23 10:40:12;;;;;;;;;15.00;13.50;;;;;12.38;57.62;101023.84;6279368;22;45174;-60
2023/02/23 10:42:38;;;;;;;;;9.75;9.00;;;;;12.40;57.95;101020.31;6280010;22;45210;-61
2023/02/23 10:45:17;;;;;;;;;19.00;14.25;;;;;12.44;57.60;101015.81;6277546;22;45758;-60
2023/02/23 10:47:43;;;;;;;;;15.50;12.50;;;;;12.44;57.65;101013.19;6277420;22;45264;-60
2023/02/23 10:50:10;;;;;;;;;13.50;13.25;;;;;12.48;57.73;101025.44;6278492;22;45232;-61
2023/02/23 10:52:42;;;;;;;;;20.25;14.75;;;;;12.52;57.92;101033.25;6279710;22;45385;-61
2023/02/23 10:55:22;;;;;;;;;18.50;16.75;;;;;12.54;57.78;101021.81;6279498;22;45614;-61
2023/02/23 10:57:50;;;;;;;;;13.00;12.75;;;;;12.56;57.45;101027.94;6278456;22;47373;-61
2023/02/23 11:00:15;;;;;;;;;16.75;15.00;;;;;12.58;57.57;101026.13;6279459;22;45173;-60
2023/02/23 11:02:42;;;;;;;;;15.25;15.25;;;;;12.58;57.60;101024.38;6279658;22;45173;-61
2023/02/23 11:05:26;;;;;;;;;16.75;15.50;;;;;12.60;57.66;101021.69;6279302;22;45324;-60
2023/02/23 11:08:07;;;;;;;;;16.00;12.50;;;;;12.60;57.63;101017.31;6278959;22;45196;-61
2023/02/23 11:10:33;;;;;;;;;16.50;15.25;;;;;12.62;57.50;101015.50;6279570;22;45183;-60
2023/02/23 11:12:58;;;;;;;;;19.75;15.75;;;;;12.61;57.59;101016.41;6279515;22;45310;-61
2023/02/23 11:15:23;;;;;;;;;17.25;16.25;;;;;12.64;57.45;101015.47;6279784;22;45518;-60
2023/02/23 11:18:01;;;;;;;;;18.75;15.75;;;;;12.63;57.24;101014.63;6278444;22;45390;-61
2023/02/23 11:20:40;;;;;;;;;15.25;13.75;;;;;12.62;57.36;101012.88;6278574;22;45204;-62
2023/02/23 11:23:14;;;;;;;;;13.25;10.75;;;;;12.66;57.42;101011.03;6251845;22;45244;-61
2023/02/23 11:25:42;;;;;;;;;19.50;17.00;;;;;12.68;57.41;101011.91;6279224;22;45335;-61
2023/02/23 11:28:21;;;;;;;;;15.50;15.50;;;;;12.67;57.50;100999.59;6278376;22;46338;-61
2023/02/23 11:30:48;;;;;;;;;15.25;14.00;;;;;12.70;57.49;101002.19;6277599;22;45370;-61
2023/02/23 11:33:30;;;;;;;;;16.00;14.75;;;;;12.73;57.18;100998.59;6277083;22;45137;-60
2023/02/23 11:36:11;;;;;;;;;12.25;11.00;;;;;12.73;57.27;100999.50;6278940;22;45437;-60
2023/02/23 11:38:36;;;;;;;;;14.25;13.25;;;;;12.73;57.44;100988.06;6278941;22;46408;-60
2023/02/23 11:41:22;;;;;;;;;16.50;15.00;;;;;12.77;57.33;100984.50;6279205;22;45260;-62
2023/02/23 11:43:50;;;;;;;;;18.75;15.50;;;;;12.79;57.51;100990.59;6279520;22;45209;-61
2023/02/23 11:46:17;;;;;;;;;18.25;17.00;;;;;12.79;57.44;100990.59;6279072;22;45202;-61
2023/02/23 11:48:54;;;;;;;;;22.00;19.75;;;;;12.84;57.35;100999.28;6278098;22;46391;-62
2023/02/23 11:51:32;;;;;;;;;16.75;15.00;;;;;12.84;57.30;100994.88;6278365;22;45169;-61
2023/02/23 11:53:59;;;;;;;;;17.25;17.25;;;;;12.86;57.47;100989.56;6279577;22;45255;-61
2023/02/23 11:56:26;;;;;;;;;22.00;17.00;;;;;12.85;57.40;100987.81;6278811;22;45437;-61
2023/02/23 11:59:03;;;;;;;;;20.25;19.75;;;;;12.89;57.46;100988.63;6277874;22;46131;-61
2023/02/23 12:01:50;;;;;;;;;18.75;18.50;;;;;12.90;56.99;100980.69;6279107;22;45284;-61
2023/02/23 12:04:29;;;;;;;;;20.00;19.00;;;;;12.93;57.18;100983.28;6250927;22;45228;-60
2023/02/23 12:07:37;;;;;;;;;14.75;14.25;;;;;12.99;57.26;100996.34;6251013;22;45224;-60
2023/02/23 12:10:24;;;;;;;;;21.50;19.25;;;;;13.01;57.10;100991.03;6250947;22;48471;-62
2023/02/23 12:13:07;;;;;;;;;15.75;15.75;;;;;12.97;57.43;100966.47;6279110;22;45375;-60
2023/02/23 12:15:49;;;;;;;;;16.00;14.75;;;;;13.09;57.49;100981.19;6279155;22;45225;-61
2023/02/23 12:18:53;;;;;;;;;16.25;14.75;;;;;13.13;57.38;100984.63;6278474;22;45056;-61
2023/02/23 12:21:28;;;;;;;;;16.50;14.75;;;;;13.11;57.15;100974.09;6200737;22;45906;-61
2023/02/23 12:24:04;;;;;;;;;16.25;16.00;;;;;13.20;56.87;100977.47;6278724;22;45339;-61
2023/02/23 12:26:43;;;;;;;;;17.00;16.75;;;;;13.24;57.10;100971.22;6278535;22;45241;-61
2023/02/23 12:29:19;;;;;;;;;21.50;16.25;;;;;13.32;57.38;100982.50;6278802;22;45558;-61
2023/02/23 12:31:56;;;;;;;;;16.75;16.00;;;;;13.38;57.08;100977.06;6278945;22;45932;-61
2023/02/23 12:34:31;;;;;;;;;9.50;8.00;;;;;13.45;57.31;100980.47;6277990;22;45264;-62
2023/02/23 12:37:06;;;;;;;;;20.75;17.00;;;;;13.51;57.35;100974.16;6276543;22;45278;-62
2023/02/23 12:39:35;;;;;;;;;15.50;13.25;;;;;13.56;57.13;100967.91;6249882;22;45308;-64
2023/02/23 12:42:24;;;;;;;;;14.50;13.75;;;;;13.68;56.88;100971.16;6278119;22;45213;-60